Tuesday, January 17, 2017, 3:50 AM EST

KDOV, Dover Air Force Base

Location: Dover, DE, United States Lat: 39.133
Local Time: 3:50 AM EST ( 8:50 GMT) Lon: -75.467
Time Zone: US/Eastern Elev: 29 ft

Show me the last for .
Show Decoded

2017-01-17 03:38 METAR KDOV 170838Z AUTO 00000KT 10SM -RA OVC016 04/04 A3026 RMK AO2
                 DZE07RAB07E20DZB20E25RAB25 =
2017-01-17 03:28 METAR KDOV 170828Z AUTO 00000KT 9SM R01/5500FT -RA OVC017 04/04 A3027 RMK AO2
                 DZE07RAB07E20DZB20E25RAB25 =
2017-01-17 02:58 METAR KDOV 170758Z AUTO 00000KT 10SM -DZ OVC019 04/04 A3026 RMK AO2
                 RAB33E57DZB57 OVC V BKN SLP250 P0000 T00360036 $ =
2017-01-17 02:43 METAR KDOV 170743Z AUTO 00000KT 10SM -RA BKN019 OVC090 04/03 A3026 RMK AO2 RAB33
                 CIG 019V090 $ =
2017-01-17 02:38 METAR KDOV 170738Z AUTO 00000KT 10SM -RA BKN020 OVC090 04/03 A3026 RMK AO2 RAB33
                 CIG 020V095 BKN V FEW $ =
2017-01-17 02:33 METAR KDOV 170733Z AUTO 00000KT 10SM -RA SCT020 OVC090 04/02 A3026 RMK AO2 RAB33
                 CIG 020 RWY19 $ =
2017-01-17 01:58 METAR KDOV 170658Z AUTO 00000KT 10SM BKN100 OVC120 03/02 A3025 =
2017-01-17 00:58 METAR KDOV 170558Z AUTO 16003KT 10SM BKN120 03/02 A3027 =
2017-01-17 00:13 METAR KDOV 170513Z AUTO 19004KT 10SM SCT026 BKN120 03/02 A3030 RMK AO2 $ =
2017-01-16 23:58 METAR KDOV 170458Z AUTO 17003KT 10SM OVC026 04/02 A3031 =
2017-01-16 22:58 METAR KDOV 170358Z AUTO 15003KT 10SM OVC027 04/02 A3032 =
2017-01-16 21:58 METAR KDOV 170258Z AUTO 16003KT 10SM OVC026 04/01 A3034 RMK AO2 SLP278 T00360010
                 56010 $ =
2017-01-16 20:58 METAR KDOV 170158Z AUTO 13004KT 10SM OVC026 04/01 A3036 =
2017-01-16 20:28 METAR KDOV 170128Z AUTO 13003KT 10SM OVC029 04/00 A3036 RMK AO2 $ =
2017-01-16 19:58 METAR KDOV 170058Z AUTO 12004KT 10SM OVC032 03/00 A3035 =
2017-01-16 18:58 METAR KDOV 162358Z AUTO 14004KT 10SM BKN032 OVC110 03/01 A3037 =
2017-01-16 17:58 METAR KDOV 162258Z AUTO 08004KT 10SM OVC031 03/01 A3037 =
2017-01-16 16:58 METAR KDOV 162158Z AUTO 10004KT 10SM BKN090 OVC120 04/01 A3038 =
2017-01-16 15:58 METAR KDOV 162058Z AUTO 10003KT 10SM OVC095 04/00 A3038 RMK AO2 SLP291 T00430003
                 56014 $ =
2017-01-16 14:58 METAR KDOV 161958Z AUTO 00000KT 10SM SCT031 BKN120 05/M01 A3039 =
2017-01-16 13:58 METAR KDOV 161858Z AUTO 00000KT 10SM OVC030 05/M02 A3039 =
2017-01-16 12:58 METAR KDOV 161758Z AUTO 20003KT 10SM OVC031 04/M02 A3043 =
2017-01-16 11:58 METAR KDOV 161658Z AUTO 00000KT 10SM OVC130 04/M02 A3044 =
2017-01-16 10:58 METAR KDOV 161558Z AUTO 00000KT 10SM CLR 03/M02 A3048 =
2017-01-16 09:58 METAR KDOV 161458Z AUTO 00000KT 10SM CLR 02/M03 A3049 =
2017-01-16 08:58 METAR KDOV 161358Z AUTO 36003KT 10SM CLR 00/M01 A3048 =
2017-01-16 07:58 METAR KDOV 161258Z AUTO VRB03KT 10SM BKN210 M03/M03 A3047 RMK AO2 SLP322
                 T10301030 $ =
2017-01-16 07:08 METAR KDOV 161208Z AUTO 02003KT 8SM CLR M03/M03 A3046 RMK AO2 =
2017-01-16 07:03 METAR KDOV 161203Z AUTO 02003KT 9SM R19/5500FT CLR M03/M03 A3046 RMK AO2 =
2017-01-16 06:58 METAR KDOV 161158Z AUTO 00000KT 10SM CLR M03/M03 A3046 =
2017-01-16 05:58 METAR KDOV 161058Z AUTO 00000KT 10SM CLR M02/M02 A3045 =
2017-01-16 04:58 METAR KDOV 160958Z AUTO 00000KT 10SM FEW190 M01/M02 A3045 =
2017-01-16 03:58 METAR KDOV 160858Z AUTO 00000KT 10SM OVC200 M01/M02 A3044 =

Support USWX by starting your Amazon purchase here.